Time;durP1;ratioP1;P1;durP2;ratioP2;P2;SDS_P1;SDS_P2;PMS_P1;PMS_P2;Temp;Humidity;BMP_temperature;BMP_pressure;BME280_temperature;BME280_humidity;BME280_pressure;Samples;Min_cycle;Max_cycle;Signal;HPM_P1;HPM_P2
2023/04/28 00:02:15;;;;;;;7.50;4.60;;;11.90;21.80;;;;;;5109230;28;21109;-66
2023/04/28 00:04:42;;;;;;;7.00;4.60;;;11.90;22.70;;;;;;5107357;28;20463;-66
2023/04/28 00:07:09;;;;;;;11.40;4.77;;;11.80;22.50;;;;;;5118206;22;20479;-66
2023/04/28 00:09:36;;;;;;;9.80;5.00;;;11.90;22.40;;;;;;5077144;28;20914;-68
2023/04/28 00:12:03;;;;;;;8.00;5.10;;;11.80;22.90;;;;;;5083628;28;20473;-67
2023/04/28 00:14:32;;;;;;;9.80;6.20;;;11.80;23.50;;;;;;5080529;28;20468;-68
2023/04/28 00:16:58;;;;;;;8.33;5.30;;;11.90;22.60;;;;;;5081704;28;20467;-67
2023/04/28 00:19:25;;;;;;;9.77;6.07;;;11.90;23.30;;;;;;5078908;28;20472;-67
2023/04/28 00:21:52;;;;;;;8.50;5.80;;;11.80;23.50;;;;;;5080660;28;20479;-68
2023/04/28 00:24:19;;;;;;;9.47;5.67;;;11.70;23.60;;;;;;5083081;28;20465;-67
2023/04/28 00:26:45;;;;;;;7.50;5.43;;;11.70;23.90;;;;;;5084988;28;20463;-67
2023/04/28 00:29:12;;;;;;;9.33;5.77;;;11.70;23.80;;;;;;5086515;28;20457;-68
2023/04/28 00:31:40;;;;;;;10.20;5.83;;;11.70;23.80;;;;;;5084280;28;20472;-68
2023/04/28 00:34:07;;;;;;;9.00;6.23;;;11.80;23.90;;;;;;5089167;28;20893;-68
2023/04/28 00:36:34;;;;;;;10.83;6.40;;;11.70;24.10;;;;;;5082191;28;20464;-68
2023/04/28 00:39:01;;;;;;;10.80;6.70;;;11.70;23.90;;;;;;5091291;28;20476;-68
2023/04/28 00:41:28;;;;;;;10.90;6.87;;;11.70;23.50;;;;;;5086375;28;20848;-68
2023/04/28 00:43:54;;;;;;;9.67;6.63;;;11.80;23.70;;;;;;5080688;28;20471;-68
2023/04/28 00:46:24;;;;;;;10.50;6.93;;;11.80;23.90;;;;;;5086462;28;20475;-68
2023/04/28 00:48:52;;;;;;;12.73;7.87;;;11.80;23.70;;;;;;5079327;28;20471;-67
2023/04/28 00:51:20;;;;;;;11.93;6.73;;;11.80;23.70;;;;;;5084118;28;20491;-67
2023/04/28 00:53:46;;;;;;;10.90;6.63;;;11.80;23.70;;;;;;5083049;28;20473;-67
2023/04/28 00:56:13;;;;;;;11.23;6.90;;;11.80;23.90;;;;;;5092889;28;21006;-67
2023/04/28 00:58:41;;;;;;;11.13;7.23;;;11.80;24.10;;;;;;5084954;28;20517;-68
2023/04/28 01:01:08;;;;;;;11.20;6.47;;;11.70;24.80;;;;;;5086530;28;20472;-67
2023/04/28 01:03:37;;;;;;;10.30;6.53;;;11.70;24.90;;;;;;5088381;28;20508;-67
2023/04/28 01:06:07;;;;;;;11.40;6.80;;;11.80;24.70;;;;;;5086451;28;20456;-68
2023/04/28 01:08:35;;;;;;;13.17;7.50;;;11.80;24.90;;;;;;5087748;28;20824;-68
2023/04/28 01:11:02;;;;;;;9.93;7.20;;;11.80;24.50;;;;;;5079527;28;20491;-67
2023/04/28 01:13:29;;;;;;;17.50;9.90;;;11.80;24.70;;;;;;5096861;28;20464;-68
2023/04/28 01:15:56;;;;;;;10.80;7.30;;;11.80;24.60;;;;;;5089364;28;20464;-67
2023/04/28 01:18:23;;;;;;;16.77;9.03;;;11.80;24.80;;;;;;5083664;28;20480;-68
2023/04/28 01:20:49;;;;;;;15.30;8.63;;;11.80;24.70;;;;;;5089593;28;21003;-67
2023/04/28 01:23:18;;;;;;;12.87;8.33;;;11.70;25.10;;;;;;5089930;28;20465;-68
2023/04/28 01:25:46;;;;;;;13.23;7.73;;;11.70;25.30;;;;;;5083629;28;20468;-67
2023/04/28 01:28:13;;;;;;;11.90;7.87;;;11.60;25.10;;;;;;5071345;28;20456;-68
2023/04/28 01:30:40;;;;;;;13.17;9.83;;;11.60;24.90;;;;;;5089574;28;20467;-68
2023/04/28 01:33:06;;;;;;;11.23;8.30;;;11.60;24.80;;;;;;5084892;28;20812;-68
2023/04/28 01:35:33;;;;;;;14.30;9.43;;;11.60;24.80;;;;;;5086304;28;20459;-68
2023/04/28 01:38:00;;;;;;;15.70;9.00;;;11.60;24.80;;;;;;5084785;28;20467;-67
2023/04/28 01:40:27;;;;;;;15.17;8.30;;;11.60;25.70;;;;;;5085498;28;20869;-67
2023/04/28 01:42:55;;;;;;;12.90;8.13;;;11.70;25.90;;;;;;5091247;28;20468;-68
2023/04/28 01:45:22;;;;;;;11.00;8.93;;;11.60;26.40;;;;;;5087694;28;20467;-68
2023/04/28 01:47:48;;;;;;;12.13;8.30;;;11.60;26.00;;;;;;5087148;28;20460;-68
2023/04/28 01:50:15;;;;;;;10.63;8.10;;;11.60;25.60;;;;;;5087420;28;20983;-67
2023/04/28 01:52:42;;;;;;;15.53;8.43;;;11.60;26.10;;;;;;5087970;28;20464;-68
2023/04/28 01:55:09;;;;;;;14.20;8.90;;;11.60;26.50;;;;;;5086046;28;20469;-68
2023/04/28 01:57:36;;;;;;;14.97;9.00;;;11.50;26.50;;;;;;5087035;28;20464;-68
2023/04/28 02:00:06;;;;;;;12.00;8.23;;;11.50;26.40;;;;;;5083608;28;20514;-67
2023/04/28 02:02:32;;;;;;;18.03;9.17;;;11.50;26.60;;;;;;5089407;28;21010;-68
2023/04/28 02:04:59;;;;;;;18.30;9.30;;;11.60;25.70;;;;;;5086135;28;20452;-68
2023/04/28 02:07:26;;;;;;;14.63;9.63;;;11.60;25.90;;;;;;5086658;28;20468;-68
2023/04/28 02:09:52;;;;;;;11.33;7.90;;;11.60;26.10;;;;;;5072832;28;20924;-67
2023/04/28 02:12:19;;;;;;;15.40;8.60;;;11.60;25.90;;;;;;5086939;28;20464;-67
2023/04/28 02:14:46;;;;;;;11.03;7.97;;;11.60;25.40;;;;;;5086588;28;20461;-68
2023/04/28 02:17:14;;;;;;;13.30;8.10;;;11.60;25.70;;;;;;5083257;28;20468;-68
2023/04/28 02:19:40;;;;;;;11.70;8.23;;;11.60;25.40;;;;;;5083572;28;20473;-67
2023/04/28 02:22:07;;;;;;;13.50;8.67;;;11.60;25.40;;;;;;5086994;28;20480;-69
2023/04/28 02:24:36;;;;;;;10.17;7.60;;;11.60;25.80;;;;;;5087125;28;20460;-68
2023/04/28 02:27:04;;;;;;;13.53;8.50;;;11.60;25.90;;;;;;5082396;28;20468;-68
2023/04/28 02:29:30;;;;;;;13.20;9.00;;;11.60;25.80;;;;;;5076535;28;20468;-67
2023/04/28 02:31:57;;;;;;;12.73;8.73;;;11.70;25.70;;;;;;5081667;28;20504;-68
2023/04/28 02:34:25;;;;;;;12.40;7.90;;;11.70;25.70;;;;;;5083030;28;20471;-68
2023/04/28 02:36:52;;;;;;;15.37;8.60;;;11.70;26.00;;;;;;5086345;28;20449;-68
2023/04/28 02:39:20;;;;;;;11.90;9.17;;;11.70;26.20;;;;;;5081666;28;20481;-68
2023/04/28 02:41:47;;;;;;;11.93;8.20;;;11.80;26.10;;;;;;5085223;28;20476;-68
2023/04/28 02:44:14;;;;;;;11.57;8.27;;;11.80;26.10;;;;;;5085986;28;20518;-68
2023/04/28 02:46:41;;;;;;;11.10;8.13;;;11.90;26.10;;;;;;5085883;28;20460;-68
2023/04/28 02:49:07;;;;;;;11.23;8.40;;;11.90;25.80;;;;;;5085259;28;20814;-68
2023/04/28 02:51:35;;;;;;;13.53;9.70;;;11.90;25.70;;;;;;5109595;28;20463;-68
2023/04/28 02:54:02;;;;;;;15.57;9.70;;;11.90;25.80;;;;;;5112251;28;20456;-68
2023/04/28 02:56:29;;;;;;;13.23;8.83;;;11.90;25.90;;;;;;5088932;28;20459;-68
2023/04/28 02:58:56;;;;;;;11.50;8.00;;;11.90;25.90;;;;;;5087647;28;20542;-68
2023/04/28 03:01:23;;;;;;;16.13;8.40;;;11.90;26.30;;;;;;5083584;28;21116;-68
2023/04/28 03:03:50;;;;;;;14.27;8.93;;;11.80;26.60;;;;;;5090514;28;20464;-69
2023/04/28 03:06:16;;;;;;;11.43;7.60;;;11.70;26.90;;;;;;5084987;28;20461;-68
2023/04/28 03:08:45;;;;;;;15.83;9.13;;;11.70;26.80;;;;;;5084674;28;20470;-68
2023/04/28 03:11:11;;;;;;;11.57;8.90;;;11.60;27.00;;;;;;5087678;28;21018;-67
2023/04/28 03:13:38;;;;;;;12.63;8.47;;;11.50;27.50;;;;;;5083816;28;20944;-68
2023/04/28 03:16:06;;;;;;;18.23;9.33;;;11.50;27.10;;;;;;5085998;28;20453;-68
2023/04/28 03:18:33;;;;;;;11.73;8.80;;;11.60;27.10;;;;;;5085766;28;20982;-68
2023/04/28 03:21:00;;;;;;;12.00;9.40;;;11.60;27.00;;;;;;5085240;28;20484;-68
2023/04/28 03:23:27;;;;;;;12.37;8.93;;;11.60;26.90;;;;;;5086784;28;20496;-67
2023/04/28 03:25:55;;;;;;;13.67;9.60;;;11.60;26.90;;;;;;5086858;28;20460;-68
2023/04/28 03:28:22;;;;;;;15.40;10.63;;;11.50;27.50;;;;;;5086786;28;20456;-68
2023/04/28 03:30:48;;;;;;;17.00;9.97;;;11.50;28.00;;;;;;5084799;28;20472;-68
2023/04/28 03:33:15;;;;;;;15.40;9.80;;;11.40;27.90;;;;;;5079797;28;20469;-68
2023/04/28 03:35:42;;;;;;;14.93;10.67;;;11.40;27.80;;;;;;5088409;28;20466;-68
2023/04/28 03:38:08;;;;;;;12.83;9.13;;;11.40;28.10;;;;;;5080951;28;20807;-68
2023/04/28 03:40:35;;;;;;;13.90;9.17;;;11.50;28.00;;;;;;5080330;28;20559;-69
2023/04/28 03:43:03;;;;;;;13.10;9.20;;;11.50;28.10;;;;;;5083633;28;20955;-67
2023/04/28 03:45:30;;;;;;;14.97;8.00;;;11.50;28.20;;;;;;5082616;28;20468;-67
2023/04/28 03:47:57;;;;;;;10.33;8.23;;;11.50;28.10;;;;;;5081945;28;20821;-68
2023/04/28 03:50:24;;;;;;;12.43;8.90;;;11.50;28.20;;;;;;5087389;28;21010;-68
2023/04/28 03:52:50;;;;;;;14.47;9.00;;;11.50;28.20;;;;;;5085645;28;20455;-68
2023/04/28 03:55:17;;;;;;;12.30;8.47;;;11.50;28.70;;;;;;5088141;28;20453;-68
2023/04/28 03:57:44;;;;;;;11.73;8.20;;;11.50;28.60;;;;;;5079035;28;21606;-68
2023/04/28 04:00:13;;;;;;;12.07;8.73;;;11.50;28.70;;;;;;5083725;28;20495;-68
2023/04/28 04:02:40;;;;;;;13.17;9.23;;;11.50;28.60;;;;;;5086028;28;21144;-67
2023/04/28 04:05:07;;;;;;;11.83;8.33;;;11.50;28.80;;;;;;5082561;28;20460;-67
2023/04/28 04:07:34;;;;;;;16.07;9.30;;;11.50;28.40;;;;;;5079756;28;20460;-64
2023/04/28 04:10:01;;;;;;;11.83;8.87;;;11.50;28.80;;;;;;5089134;28;20464;-65
2023/04/28 04:12:27;;;;;;;12.57;8.07;;;11.40;29.20;;;;;;5078662;28;20563;-69
2023/04/28 04:14:54;;;;;;;14.30;9.20;;;11.50;29.20;;;;;;5083117;28;20460;-68
2023/04/28 04:17:22;;;;;;;10.63;7.93;;;11.40;29.10;;;;;;5081925;28;20452;-69
2023/04/28 04:19:49;;;;;;;14.10;7.67;;;11.40;29.10;;;;;;5086553;28;20484;-69
2023/04/28 04:22:15;;;;;;;13.80;8.43;;;11.50;29.40;;;;;;5081566;28;20825;-69
2023/04/28 04:24:42;;;;;;;11.17;8.00;;;11.50;29.60;;;;;;5085478;28;20452;-69
2023/04/28 04:27:09;;;;;;;13.10;8.80;;;11.50;30.10;;;;;;5076064;28;20464;-68
2023/04/28 04:29:36;;;;;;;11.10;8.80;;;11.50;30.20;;;;;;5085959;28;20453;-68
2023/04/28 04:32:02;;;;;;;13.73;9.70;;;11.50;30.70;;;;;;5084704;28;20904;-69
2023/04/28 04:34:30;;;;;;;11.23;9.07;;;11.50;30.70;;;;;;5082136;28;20834;-69
2023/04/28 04:36:57;;;;;;;14.83;10.40;;;11.50;30.70;;;;;;5088510;28;20538;-69
2023/04/28 04:39:24;;;;;;;14.93;10.00;;;11.50;30.50;;;;;;5082979;22;20492;-65
2023/04/28 04:41:51;;;;;;;16.30;9.07;;;11.50;31.30;;;;;;5081955;28;20464;-65
2023/04/28 04:44:18;;;;;;;13.27;8.80;;;11.50;31.00;;;;;;5084805;28;21384;-65
2023/04/28 04:46:44;;;;;;;14.30;9.30;;;11.50;31.00;;;;;;5087225;28;20463;-66
2023/04/28 04:49:11;;;;;;;15.93;9.50;;;11.50;31.30;;;;;;5082319;28;22005;-65
2023/04/28 04:51:39;;;;;;;14.97;10.10;;;11.50;31.60;;;;;;5082822;28;20472;-65
2023/04/28 04:54:06;;;;;;;13.87;9.93;;;11.60;31.70;;;;;;5076211;28;20547;-64
2023/04/28 04:56:33;;;;;;;11.27;8.30;;;11.60;32.20;;;;;;5064001;28;21094;-65
2023/04/28 04:59:00;;;;;;;11.03;7.93;;;11.60;33.20;;;;;;5081034;28;20526;-66
2023/04/28 05:01:26;;;;;;;14.23;9.47;;;11.60;33.00;;;;;;5078770;28;21150;-66
2023/04/28 05:03:53;;;;;;;10.57;8.40;;;11.60;33.20;;;;;;5079741;28;20464;-66
2023/04/28 05:06:20;;;;;;;15.60;8.20;;;11.70;33.40;;;;;;5085765;28;20476;-65
2023/04/28 05:08:48;;;;;;;9.17;6.20;;;11.70;33.60;;;;;;5086147;28;20483;-66
2023/04/28 05:11:15;;;;;;;10.50;6.70;;;11.80;33.60;;;;;;5077942;28;20469;-66
2023/04/28 05:13:42;;;;;;;14.10;7.07;;;11.80;33.10;;;;;;5070960;28;20529;-66
2023/04/28 05:16:09;;;;;;;12.60;7.13;;;11.80;33.50;;;;;;5073563;28;20479;-66
2023/04/28 05:18:35;;;;;;;13.80;6.70;;;11.80;33.10;;;;;;5073465;28;21145;-64
2023/04/28 05:21:02;;;;;;;9.80;6.90;;;11.80;33.20;;;;;;5073080;28;20965;-64
2023/04/28 05:23:29;;;;;;;9.80;6.97;;;11.80;33.40;;;;;;5071699;28;20482;-64
2023/04/28 05:25:57;;;;;;;11.17;6.33;;;11.80;33.70;;;;;;5074688;28;20471;-65
2023/04/28 05:28:24;;;;;;;10.07;6.63;;;11.90;33.70;;;;;;5071126;28;20504;-65
2023/04/28 05:30:51;;;;;;;13.53;6.43;;;11.90;33.90;;;;;;5077055;28;20491;-65
2023/04/28 05:33:17;;;;;;;10.13;6.17;;;11.80;33.70;;;;;;5085445;28;20464;-65
2023/04/28 05:35:44;;;;;;;16.60;6.73;;;11.90;34.10;;;;;;5088268;28;20457;-66
2023/04/28 05:38:11;;;;;;;10.83;6.70;;;11.90;34.70;;;;;;5086051;28;20499;-66
2023/04/28 05:40:37;;;;;;;12.77;6.80;;;11.80;35.10;;;;;;5085197;28;20476;-66
2023/04/28 05:43:05;;;;;;;12.53;7.60;;;11.90;35.50;;;;;;5084294;28;20460;-67
2023/04/28 05:45:32;;;;;;;10.23;6.80;;;11.80;35.90;;;;;;5084865;28;20461;-64
2023/04/28 05:47:59;;;;;;;17.10;7.90;;;11.90;36.20;;;;;;5090322;28;20487;-65
2023/04/28 05:50:26;;;;;;;11.70;7.43;;;11.90;36.30;;;;;;5080413;28;20457;-67
2023/04/28 05:52:54;;;;;;;10.60;6.87;;;11.90;36.60;;;;;;5075219;28;20464;-66
2023/04/28 05:55:21;;;;;;;10.13;6.30;;;12.00;37.10;;;;;;5088584;28;20452;-66
2023/04/28 05:57:47;;;;;;;11.83;6.47;;;11.90;37.60;;;;;;5094331;28;20495;-66
2023/04/28 06:00:16;;;;;;;11.13;6.30;;;12.00;38.10;;;;;;5079204;28;20475;-65
2023/04/28 06:02:43;;;;;;;12.10;6.20;;;11.90;38.60;;;;;;5072791;28;20469;-65
2023/04/28 06:05:10;;;;;;;9.30;5.90;;;12.00;39.20;;;;;;5068355;28;20862;-65
2023/04/28 06:07:37;;;;;;;8.57;6.53;;;12.00;39.50;;;;;;5067359;28;21025;-64
2023/04/28 06:10:04;;;;;;;9.13;6.00;;;12.00;39.70;;;;;;5071666;28;20472;-65
2023/04/28 06:12:31;;;;;;;11.33;6.23;;;12.00;39.90;;;;;;5071529;28;20482;-65
2023/04/28 06:14:58;;;;;;;8.90;5.83;;;12.00;40.20;;;;;;5073465;28;20492;-66
2023/04/28 06:17:26;;;;;;;11.07;5.80;;;12.00;40.50;;;;;;5071118;28;20475;-66
2023/04/28 06:19:53;;;;;;;9.10;6.30;;;12.00;41.30;;;;;;5067062;28;20861;-65
2023/04/28 06:22:20;;;;;;;10.60;6.47;;;12.10;41.70;;;;;;5069765;28;20467;-66
2023/04/28 06:24:47;;;;;;;9.30;5.63;;;12.00;41.70;;;;;;5064485;22;20599;-65
2023/04/28 06:27:13;;;;;;;14.13;6.40;;;12.00;41.90;;;;;;5047225;28;20479;-65
2023/04/28 06:29:40;;;;;;;10.97;6.67;;;12.00;42.00;;;;;;5048626;28;20468;-65
2023/04/28 06:32:07;;;;;;;9.50;6.10;;;12.00;42.20;;;;;;5050622;28;20508;-65
2023/04/28 06:34:35;;;;;;;9.63;6.07;;;12.10;42.40;;;;;;5050425;28;20840;-65
2023/04/28 06:37:02;;;;;;;10.87;6.63;;;12.10;42.10;;;;;;5061035;28;20972;-65
2023/04/28 06:39:29;;;;;;;9.67;6.60;;;12.20;42.00;;;;;;5062137;28;20468;-65
2023/04/28 06:41:56;;;;;;;9.60;5.83;;;12.20;41.20;;;;;;5066721;28;20480;-65
2023/04/28 06:44:23;;;;;;;9.40;6.70;;;12.30;41.30;;;;;;5063838;28;20818;-65
2023/04/28 06:46:50;;;;;;;10.27;6.80;;;12.40;41.40;;;;;;5066374;28;20465;-65
2023/04/28 06:49:17;;;;;;;11.33;5.70;;;12.40;41.50;;;;;;5059228;28;20468;-66
2023/04/28 06:51:45;;;;;;;10.33;6.47;;;12.50;42.20;;;;;;5048848;28;20556;-65
2023/04/28 06:54:12;;;;;;;11.87;7.70;;;12.50;42.20;;;;;;5044940;28;21031;-65
2023/04/28 06:56:39;;;;;;;13.30;7.67;;;12.50;42.20;;;;;;5051489;28;20898;-66
2023/04/28 06:59:06;;;;;;;12.93;7.20;;;12.60;43.10;;;;;;5055082;28;20568;-65
2023/04/28 07:01:32;;;;;;;7.50;3.93;;;12.60;43.50;;;;;;5051875;28;20486;-66
2023/04/28 07:03:59;;;;;;;6.77;4.20;;;12.60;43.70;;;;;;5048919;28;20492;-65
2023/04/28 07:06:28;;;;;;;10.20;5.70;;;12.60;44.20;;;;;;5045586;28;21235;-66
2023/04/28 07:08:56;;;;;;;10.77;6.50;;;12.70;44.60;;;;;;5050365;28;20570;-65
2023/04/28 07:11:23;;;;;;;10.60;4.90;;;12.70;44.70;;;;;;5046801;28;20461;-65
2023/04/28 07:13:50;;;;;;;9.27;5.53;;;12.80;44.70;;;;;;5049628;28;20470;-65
2023/04/28 07:16:17;;;;;;;8.77;4.77;;;12.80;44.80;;;;;;5048926;28;20474;-65
2023/04/28 07:18:44;;;;;;;8.10;3.80;;;12.80;44.80;;;;;;5059197;28;20473;-65
2023/04/28 07:21:11;;;;;;;7.83;4.00;;;12.70;44.80;;;;;;5053899;28;20480;-66
2023/04/28 07:23:39;;;;;;;6.70;3.33;;;12.80;45.00;;;;;;5048962;28;20468;-66
2023/04/28 07:26:07;;;;;;;6.23;2.93;;;12.80;44.90;;;;;;5051504;28;20466;-65
2023/04/28 07:28:34;;;;;;;6.17;3.17;;;12.80;44.80;;;;;;5046743;28;20466;-65
2023/04/28 07:31:01;;;;;;;5.20;2.60;;;12.80;44.90;;;;;;5049222;28;20480;-66
2023/04/28 07:33:27;;;;;;;5.40;2.60;;;12.80;44.80;;;;;;5050781;28;20525;-66
2023/04/28 07:35:54;;;;;;;6.73;2.20;;;12.80;44.50;;;;;;5064516;28;20477;-65
2023/04/28 07:38:21;;;;;;;5.87;3.03;;;12.90;44.40;;;;;;5059528;28;20553;-66
2023/04/28 07:40:48;;;;;;;4.53;1.97;;;12.80;44.50;;;;;;5054708;28;20489;-64
2023/04/28 07:43:16;;;;;;;5.30;2.60;;;12.90;44.30;;;;;;5043100;28;20507;-65
2023/04/28 07:45:44;;;;;;;5.90;2.67;;;12.90;44.10;;;;;;5049153;28;21073;-64
2023/04/28 07:48:11;;;;;;;5.33;2.30;;;13.00;44.30;;;;;;5038256;28;21000;-65
2023/04/28 07:50:37;;;;;;;5.90;2.50;;;13.10;44.10;;;;;;5044338;28;20469;-65
2023/04/28 07:53:04;;;;;;;5.00;2.20;;;13.10;43.90;;;;;;5046975;28;20470;-67
2023/04/28 07:55:31;;;;;;;5.30;2.77;;;13.20;43.90;;;;;;5049671;28;20489;-67
2023/04/28 07:57:58;;;;;;;5.33;2.40;;;13.40;43.90;;;;;;5048348;28;21017;-64
2023/04/28 08:00:26;;;;;;;6.03;2.20;;;13.40;43.30;;;;;;5045986;28;20504;-67
2023/04/28 08:02:53;;;;;;;7.40;2.70;;;13.50;43.00;;;;;;5053819;28;20461;-67
2023/04/28 08:05:20;;;;;;;5.30;2.23;;;13.50;43.00;;;;;;5057225;28;20480;-64
2023/04/28 08:07:46;;;;;;;5.50;2.23;;;13.60;42.70;;;;;;5047487;28;20607;-66
2023/04/28 08:10:13;;;;;;;4.67;1.87;;;13.60;42.60;;;;;;5054810;28;20549;-66
2023/04/28 08:12:40;;;;;;;5.00;2.20;;;13.60;42.60;;;;;;5056009;28;20461;-66
2023/04/28 08:15:08;;;;;;;5.20;1.90;;;13.70;42.30;;;;;;5046525;28;20488;-66
2023/04/28 08:17:37;;;;;;;5.10;2.13;;;13.70;42.40;;;;;;5047231;28;20465;-67
2023/04/28 08:20:05;;;;;;;5.87;2.30;;;13.80;42.00;;;;;;5063814;28;21062;-68
2023/04/28 08:22:32;;;;;;;4.83;2.40;;;13.80;42.00;;;;;;5063868;28;21046;-64
2023/04/28 08:24:58;;;;;;;5.20;2.00;;;13.90;41.90;;;;;;5050684;28;20503;-66
2023/04/28 08:27:25;;;;;;;6.47;2.17;;;13.90;42.00;;;;;;5053483;28;20458;-63
2023/04/28 08:29:52;;;;;;;5.00;1.70;;;13.90;41.80;;;;;;5050260;28;20477;-67
2023/04/28 08:32:19;;;;;;;5.13;2.20;;;13.90;41.50;;;;;;5046717;28;20607;-68
2023/04/28 08:34:47;;;;;;;6.17;2.10;;;13.90;41.90;;;;;;5047233;28;21151;-66
2023/04/28 08:37:14;;;;;;;5.97;2.57;;;13.90;42.20;;;;;;5047966;28;20469;-67
2023/04/28 08:39:41;;;;;;;4.90;2.10;;;13.90;42.00;;;;;;5052879;28;20462;-67
2023/04/28 08:42:09;;;;;;;6.57;2.17;;;13.90;42.00;;;;;;5054527;28;20534;-66
2023/04/28 08:44:38;;;;;;;5.00;2.00;;;13.90;42.20;;;;;;5049353;28;20489;-66
2023/04/28 08:47:12;;;;;;;5.13;2.00;;;13.90;42.50;;;;;;5049048;28;20464;-67
2023/04/28 08:49:39;;;;;;;10.60;2.50;;;13.90;42.40;;;;;;5044204;28;20509;-70
2023/04/28 08:52:11;;;;;;;6.37;2.77;;;13.90;42.70;;;;;;5051677;28;20519;-66
2023/04/28 08:54:39;;;;;;;5.20;2.13;;;13.90;42.90;;;;;;5055210;28;20485;-67
2023/04/28 08:57:09;;;;;;;8.40;2.57;;;13.80;42.80;;;;;;5054397;28;20461;-68
2023/04/28 08:59:38;;;;;;;6.43;2.90;;;13.90;42.90;;;;;;5043386;28;20472;-64
2023/04/28 09:02:06;;;;;;;6.13;2.30;;;13.80;43.20;;;;;;5067123;28;20556;-64
2023/04/28 09:04:33;;;;;;;6.67;2.47;;;13.80;43.40;;;;;;5066480;28;20516;-64
2023/04/28 09:06:59;;;;;;;6.93;2.60;;;13.80;43.50;;;;;;5061042;28;20465;-65
2023/04/28 09:09:29;;;;;;;5.37;2.53;;;13.70;44.20;;;;;;5049817;28;20476;-65
2023/04/28 09:11:57;;;;;;;7.63;2.63;;;13.70;44.30;;;;;;5059371;28;20457;-66
2023/04/28 09:14:24;;;;;;;5.87;2.93;;;13.70;44.50;;;;;;5061211;28;20544;-65
2023/04/28 09:16:51;;;;;;;6.80;3.13;;;13.70;45.00;;;;;;5062459;28;20469;-65
2023/04/28 09:19:18;;;;;;;7.50;2.80;;;13.70;45.00;;;;;;5054774;28;20548;-68
2023/04/28 09:21:49;;;;;;;8.70;2.77;;;13.70;45.00;;;;;;5060637;28;20492;-65
2023/04/28 09:24:33;;;;;;;7.10;2.67;;;13.70;45.40;;;;;;5059825;28;20493;-65
2023/04/28 09:27:01;;;;;;;7.50;2.80;;;13.70;45.60;;;;;;5042590;28;20475;-64
2023/04/28 09:29:28;;;;;;;6.73;3.00;;;13.80;45.50;;;;;;5051248;28;20458;-66
2023/04/28 09:32:11;;;;;;;5.30;2.53;;;13.80;45.40;;;;;;5061056;28;20595;-66
2023/04/28 09:34:44;;;;;;;4.70;2.30;;;13.80;45.60;;;;;;5058551;28;20988;-65
2023/04/28 09:37:15;;;;;;;5.70;2.33;;;13.80;45.70;;;;;;5068058;28;20472;-65
2023/04/28 09:39:44;;;;;;;5.47;2.33;;;13.80;45.70;;;;;;5060076;28;20850;-65
2023/04/28 09:42:11;;;;;;;6.30;2.93;;;13.90;46.20;;;;;;5062116;28;20484;-65
2023/04/28 09:44:38;;;;;;;6.83;2.27;;;13.90;46.00;;;;;;5067949;28;20488;-66
2023/04/28 09:47:21;;;;;;;5.67;2.50;;;13.90;46.00;;;;;;5064201;28;20465;-66
2023/04/28 09:49:54;;;;;;;4.90;2.13;;;14.00;46.20;;;;;;5061353;28;20867;-65
2023/04/28 09:52:21;;;;;;;5.13;2.60;;;14.10;46.30;;;;;;5055700;28;20961;-65
2023/04/28 09:54:51;;;;;;;5.90;2.50;;;14.20;45.90;;;;;;5062675;28;20561;-66
2023/04/28 09:57:18;;;;;;;6.03;2.63;;;14.20;46.00;;;;;;5062401;28;20575;-65
2023/04/28 09:59:48;;;;;;;6.07;2.77;;;14.30;45.50;;;;;;5059621;28;20551;-65
2023/04/28 10:02:16;;;;;;;4.43;2.07;;;14.40;45.60;;;;;;5067369;28;20469;-64
2023/04/28 10:04:44;;;;;;;5.90;2.27;;;14.50;45.50;;;;;;5067661;28;20517;-65
2023/04/28 10:07:12;;;;;;;5.20;2.30;;;14.50;45.40;;;;;;5065996;28;20464;-65
2023/04/28 10:09:42;;;;;;;5.00;2.20;;;14.50;45.20;;;;;;5059842;28;20674;-65
2023/04/28 10:12:11;;;;;;;5.23;2.50;;;14.60;45.10;;;;;;5070515;28;20461;-64
2023/04/28 10:14:38;;;;;;;5.00;2.20;;;14.60;44.90;;;;;;5064842;28;20500;-65
2023/04/28 10:17:05;;;;;;;5.50;2.20;;;14.60;44.80;;;;;;5059191;28;20465;-66
2023/04/28 10:19:32;;;;;;;5.30;2.17;;;14.60;45.00;;;;;;5064830;28;20556;-65
2023/04/28 10:22:14;;;;;;;4.60;1.87;;;14.60;45.10;;;;;;5068251;28;20538;-65
2023/04/28 10:24:59;;;;;;;4.97;1.90;;;14.60;45.60;;;;;;5065486;28;20528;-65
2023/04/28 10:27:30;;;;;;;5.40;1.80;;;14.60;45.80;;;;;;5058930;28;20504;-65
2023/04/28 10:30:10;;;;;;;4.60;1.90;;;14.70;45.80;;;;;;5068263;28;20802;-65
2023/04/28 10:32:37;;;;;;;4.30;1.40;;;14.80;45.80;;;;;;5060624;28;20514;-64
2023/04/28 10:35:42;;;;;;;5.27;1.80;;;15.00;45.80;;;;;;5068532;28;20473;-65
2023/04/28 10:38:11;;;;;;;4.30;1.57;;;15.20;45.50;;;;;;5060808;28;20468;-64
2023/04/28 10:40:39;;;;;;;5.50;2.17;;;15.30;45.10;;;;;;5065820;28;20898;-65
2023/04/28 10:43:08;;;;;;;4.00;1.20;;;15.40;45.00;;;;;;5063270;28;21036;-65
2023/04/28 10:46:05;;;;;;;4.07;1.30;;;15.50;44.60;;;;;;5058862;28;20501;-64
2023/04/28 10:49:05;;;;;;;3.70;1.10;;;15.50;44.70;;;;;;5060925;28;20903;-65
2023/04/28 10:51:36;;;;;;;7.40;2.00;;;15.60;44.40;;;;;;5060712;28;20465;-66
2023/04/28 10:54:19;;;;;;;4.03;1.40;;;15.70;44.10;;;;;;5058569;28;20513;-65
2023/04/28 10:57:20;;;;;;;4.87;1.67;;;16.00;43.70;;;;;;5052860;28;20461;-65
2023/04/28 10:59:49;;;;;;;8.47;1.60;;;16.30;42.80;;;;;;5051732;28;20533;-64
2023/04/28 11:02:39;;;;;;;4.40;1.70;;;16.60;42.00;;;;;;5056912;28;20487;-64
2023/04/28 11:05:17;;;;;;;4.30;1.70;;;16.90;41.10;;;;;;5053309;28;20482;-65
2023/04/28 11:08:29;;;;;;;4.40;1.53;;;17.10;40.00;;;;;;5055441;28;20544;-66
2023/04/28 11:11:20;;;;;;;4.83;2.03;;;17.30;39.30;;;;;;5027368;28;20551;-66
2023/04/28 11:13:47;;;;;;;4.40;1.33;;;17.40;39.10;;;;;;5059811;28;20463;-67
2023/04/28 11:16:18;;;;;;;5.07;1.60;;;17.60;38.40;;;;;;5059278;28;20462;-66
2023/04/28 11:19:03;;;;;;;4.97;1.60;;;17.80;37.50;;;;;;5058866;28;20473;-65
2023/04/28 11:21:31;;;;;;;5.10;1.57;;;17.80;36.30;;;;;;5063630;28;20473;-64
2023/04/28 11:23:58;;;;;;;4.80;1.83;;;17.70;35.70;;;;;;5058797;28;20494;-66
2023/04/28 11:26:27;;;;;;;4.53;1.90;;;17.80;35.20;;;;;;5058193;28;20474;-66
2023/04/28 11:28:55;;;;;;;5.17;1.90;;;17.70;35.10;;;;;;5061570;28;20540;-66
2023/04/28 11:31:24;;;;;;;6.80;2.00;;;17.70;35.60;;;;;;5057144;28;20465;-65
2023/04/28 11:33:58;;;;;;;5.30;1.90;;;17.70;35.30;;;;;;5060508;28;20473;-66
2023/04/28 11:36:31;;;;;;;4.20;1.70;;;17.60;35.30;;;;;;5057762;28;20965;-66
2023/04/28 11:38:59;;;;;;;5.07;2.10;;;17.70;35.30;;;;;;5058579;28;20514;-68
2023/04/28 11:41:26;;;;;;;4.83;1.47;;;17.90;35.50;;;;;;5044494;28;20596;-69
2023/04/28 11:43:53;;;;;;;4.17;1.40;;;18.10;34.10;;;;;;5047259;28;20827;-68
2023/04/28 11:46:23;;;;;;;4.70;1.90;;;18.20;33.90;;;;;;5059501;28;20471;-68
2023/04/28 11:49:00;;;;;;;4.30;1.70;;;18.20;33.50;;;;;;5057419;28;20472;-68
2023/04/28 11:51:36;;;;;;;4.07;1.43;;;18.20;33.30;;;;;;5059953;28;20543;-68
2023/04/28 11:54:03;;;;;;;4.93;2.07;;;18.10;32.90;;;;;;5063459;28;20579;-68
2023/04/28 11:56:30;;;;;;;5.40;2.50;;;17.90;33.30;;;;;;5053422;28;20505;-68
2023/04/28 11:59:07;;;;;;;4.50;2.00;;;17.80;33.80;;;;;;5063561;28;20475;-68
2023/04/28 12:01:43;;;;;;;4.90;1.80;;;17.70;34.20;;;;;;5059255;28;20477;-68
2023/04/28 12:04:11;;;;;;;4.23;1.87;;;17.70;34.20;;;;;;5056665;28;21079;-68
2023/04/28 12:06:38;;;;;;;5.30;1.87;;;17.80;34.10;;;;;;5063313;28;20461;-68
2023/04/28 12:09:15;;;;;;;5.33;1.87;;;17.90;33.90;;;;;;5062548;28;20453;-68
2023/04/28 12:11:53;;;;;;;4.10;1.30;;;18.10;33.70;;;;;;5053969;28;20895;-68
2023/04/28 12:14:20;;;;;;;5.10;1.43;;;18.30;33.10;;;;;;5049083;28;20520;-69
2023/04/28 12:16:49;;;;;;;5.80;2.03;;;18.40;32.60;;;;;;5046703;28;20464;-69
2023/04/28 12:19:17;;;;;;;5.20;2.10;;;18.40;32.30;;;;;;5051183;28;20469;-68
2023/04/28 12:21:44;;;;;;;5.67;2.10;;;18.40;32.50;;;;;;5062722;28;20488;-68
2023/04/28 12:24:18;;;;;;;6.17;1.70;;;18.50;32.20;;;;;;5061444;28;20511;-68
2023/04/28 12:26:46;;;;;;;4.40;2.00;;;18.50;32.00;;;;;;5051748;28;20461;-68
2023/04/28 12:29:38;;;;;;;5.30;1.90;;;18.40;31.50;;;;;;5064013;28;20473;-69
2023/04/28 12:32:08;;;;;;;4.40;1.73;;;18.40;31.90;;;;;;5051941;28;20472;-68
2023/04/28 12:34:35;;;;;;;4.30;1.80;;;18.40;31.80;;;;;;5061815;28;20610;-69
2023/04/28 12:37:04;;;;;;;3.83;1.23;;;18.60;31.50;;;;;;5057792;28;20469;-68
2023/04/28 12:39:31;;;;;;;3.80;1.20;;;18.60;31.40;;;;;;5065244;28;20460;-69
2023/04/28 12:41:59;;;;;;;5.20;1.40;;;18.60;30.90;;;;;;5054094;28;20497;-68
2023/04/28 12:44:26;;;;;;;4.10;1.60;;;18.70;30.90;;;;;;5053277;28;20911;-68
2023/04/28 12:46:54;;;;;;;4.00;1.50;;;18.90;31.10;;;;;;5059016;28;20968;-67
2023/04/28 12:49:23;;;;;;;3.87;1.37;;;18.80;30.30;;;;;;5055001;28;20465;-67
2023/04/28 12:51:50;;;;;;;3.97;1.33;;;18.70;30.60;;;;;;5047404;28;20461;-69